Vanua Mbalavu, Fiji
Current Conditions -  °F | °C
As of 12:00 PM on Friday 19 Dec 2014 (Local Time) from NFNA Reporting Station
Overcast Overcast  
Wind Chill: 77°   Ceiling: 1800
Heat Index: 78°   Visibility: 13mi
Dew Point: 75°   Wind: 0mph
Humidity: 94%   Direction: NA
Pressure: 29.88"   Gusts: NA
Location:  17.25°S, 178.92°W
Report Text: NFNA 190000Z 00000KT 20KM BKN018 OVC043 25/24 Q1012 RMK RR 4.5
Loading
Personal Weather Stations






























Interactive Weather Map New forecast layout! Learn more

10-Day Weather Forecast

Advertisements
Track Severe Weather on mobile